Time;durP1;ratioP1;P1;durP2;ratioP2;P2;SDS_P1;SDS_P2;PMS_P1;PMS_P2;Temp;Humidity;BMP_temperature;BMP_pressure;BME280_temperature;BME280_humidity;BME280_pressure;Samples;Min_cycle;Max_cycle;Signal;HPM_P1;HPM_P2
2023/04/05 00:00:36;;;;;;;7.80;6.60;;;;;;;3.69;100.00;99633.16;105649;1260;71269;-78
2023/04/05 00:03:11;;;;;;;7.10;6.40;;;;;;;3.69;100.00;99624.38;105803;1260;62332;-78
2023/04/05 00:05:43;;;;;;;8.20;6.80;;;;;;;3.70;100.00;99619.25;105728;1257;60450;-73
2023/04/05 00:08:22;;;;;;;7.60;6.80;;;;;;;3.69;100.00;99625.13;105728;1263;74055;-79
2023/04/05 00:10:53;;;;;;;7.40;6.60;;;;;;;3.62;100.00;99626.02;105809;1258;71107;-72
2023/04/05 00:13:22;;;;;;;7.20;6.50;;;;;;;3.64;100.00;99630.60;105775;1260;73840;-72
2023/04/05 00:15:57;;;;;;;6.90;6.20;;;;;;;3.63;100.00;99614.34;105763;1254;63061;-80
2023/04/05 00:18:34;;;;;;;6.40;5.70;;;;;;;3.67;100.00;99606.65;106016;1254;61364;-75
2023/04/05 00:21:04;;;;;;;6.70;6.00;;;;;;;3.66;100.00;99615.67;105835;1258;74628;-77
2023/04/05 00:23:38;;;;;;;8.90;5.80;;;;;;;3.61;100.00;99622.08;105812;1257;69632;-78
2023/04/05 00:26:10;;;;;;;6.30;5.60;;;;;;;3.59;100.00;99612.46;105810;1253;72898;-77
2023/04/05 00:28:41;;;;;;;7.30;6.50;;;;;;;3.61;100.00;99610.17;105786;1256;60534;-76
2023/04/05 00:31:11;;;;;;;8.60;5.90;;;;;;;3.55;100.00;99604.52;105806;1254;60974;-71
2023/04/05 00:33:41;;;;;;;6.20;5.40;;;;;;;3.51;100.00;99603.59;105885;1258;74185;-78
2023/04/05 00:36:11;;;;;;;6.60;5.70;;;;;;;3.50;100.00;99599.11;105605;1262;71268;-77
2023/04/05 00:38:43;;;;;;;6.80;5.40;;;;;;;3.50;100.00;99597.05;105678;1262;72437;-74
2023/04/05 00:41:12;;;;;;;6.80;5.70;;;;;;;3.42;100.00;99593.36;105816;1260;60537;-72
2023/04/05 00:43:45;;;;;;;;;;;;;;;3.40;100.00;99593.19;105645;1260;60486;-73
2023/04/05 00:46:16;;;;;;;5.60;4.70;;;;;;;3.41;100.00;99591.29;105703;1254;74074;-72
2023/04/05 00:48:47;;;;;;;5.80;4.90;;;;;;;3.44;100.00;99594.95;105645;1261;69348;-72
2023/04/05 00:51:16;;;;;;;6.50;4.90;;;;;;;3.39;100.00;99596.36;105624;1254;71370;-73
2023/04/05 00:53:47;;;;;;;5.80;5.00;;;;;;;3.39;100.00;99591.00;105701;1259;60420;-70
2023/04/05 00:56:15;;;;;;;4.70;4.20;;;;;;;3.41;100.00;99584.98;105699;1260;60435;-67
2023/04/05 00:58:50;;;;;;;6.80;5.20;;;;;;;3.40;100.00;99578.15;105638;1254;73916;-66
2023/04/05 01:01:21;;;;;;;5.70;5.10;;;;;;;3.34;100.00;99578.91;105915;1259;68849;-74
2023/04/05 01:03:58;;;;;;;5.20;4.60;;;;;;;3.38;100.00;99581.75;105908;1267;70603;-72
2023/04/05 01:06:40;;;;;;;5.80;5.10;;;;;;;3.39;100.00;99573.47;106020;1254;61637;-77
2023/04/05 01:09:22;;;;;;;5.50;4.80;;;;;;;3.35;100.00;99566.56;105777;1260;61350;-79
2023/04/05 01:11:54;;;;;;;5.20;4.70;;;;;;;3.42;100.00;99563.98;106016;1259;73536;-78
2023/04/05 01:14:25;;;;;;;5.70;5.10;;;;;;;3.45;100.00;99567.02;105731;1262;69778;-74
2023/04/05 01:16:57;;;;;;;6.60;5.60;;;;;;;3.44;100.00;99564.65;106006;1269;73900;-80
2023/04/05 01:19:33;;;;;;;5.10;4.60;;;;;;;3.42;100.00;99566.92;106230;1259;61924;-79
2023/04/05 01:22:44;;;;;;;6.40;5.30;;;;;;;3.46;100.00;99567.66;105886;1260;61535;-79
2023/04/05 01:25:55;;;;;;;6.30;5.40;;;;;;;3.44;100.00;99566.77;106920;1255;75293;-79
2023/04/05 01:29:03;;;;;;;5.40;4.90;;;;;;;3.38;100.00;99564.04;105971;1259;71546;-73
2023/04/05 01:31:49;;;;;;;6.50;5.50;;;;;;;3.40;100.00;99561.83;106144;1260;71738;-73
2023/04/05 01:34:44;;;;;;;5.60;5.00;;;;;;;3.40;100.00;99559.52;106807;1255;62898;-81
2023/04/05 01:37:14;;;;;;;7.70;6.50;;;;;;;3.46;100.00;99560.48;107439;1254;60059;-75
2023/04/05 01:39:50;;;;;;;6.60;5.90;;;;;;;3.43;100.00;99560.73;108607;1254;71522;-81
2023/04/05 01:42:26;;;;;;;5.90;5.30;;;;;;;3.45;100.00;99561.77;108575;1254;70409;-75
2023/04/05 01:44:58;;;;;;;6.10;5.50;;;;;;;3.45;100.00;99548.65;108022;1253;72632;-74
2023/04/05 01:47:31;;;;;;;5.60;5.10;;;;;;;3.37;100.00;99545.42;107926;1257;60856;-79
2023/04/05 01:50:02;;;;;;;6.00;5.30;;;;;;;3.33;100.00;99548.22;109235;1254;60079;-81
2023/04/05 01:52:32;;;;;;;5.40;4.90;;;;;;;3.38;100.00;99542.55;109395;1254;74042;-80
2023/04/05 01:55:08;;;;;;;7.10;5.50;;;;;;;3.42;100.00;99546.26;109281;1254;70246;-72
2023/04/05 01:57:38;;;;;;;6.90;5.00;;;;;;;3.39;100.00;99542.30;108716;1257;71097;-74
2023/04/05 02:00:12;;;;;;;5.40;4.80;;;;;;;3.44;100.00;99535.05;107848;1257;62168;-74
2023/04/05 02:02:41;;;;;;;5.30;4.80;;;;;;;3.48;100.00;99531.72;108483;1254;59970;-72
2023/04/05 02:05:09;;;;;;;4.60;4.10;;;;;;;3.43;100.00;99528.09;108554;1254;72044;-73
2023/04/05 02:07:39;;;;;;;5.70;4.60;;;;;;;3.42;100.00;99527.85;108385;1254;69384;-72
2023/04/05 02:10:07;;;;;;;4.80;4.30;;;;;;;3.42;100.00;99520.65;108492;1254;72622;-72
2023/04/05 02:12:36;;;;;;;4.50;4.00;;;;;;;3.45;100.00;99514.13;108109;1254;60371;-73
2023/04/05 02:15:06;;;;;;;7.00;4.90;;;;;;;3.43;100.00;99510.61;108959;1254;58914;-71
2023/04/05 02:17:38;;;;;;;5.60;3.90;;;;;;;3.44;100.00;99509.29;108883;1254;73154;-70
2023/04/05 02:20:07;;;;;;;5.40;4.50;;;;;;;3.44;100.00;99508.94;108070;1254;70491;-74
2023/04/05 02:22:38;;;;;;;4.40;4.00;;;;;;;3.38;100.00;99502.10;108642;1254;73945;-72
2023/04/05 02:25:09;;;;;;;4.40;3.80;;;;;;;3.39;100.00;99504.14;108888;1254;61640;-72
2023/04/05 02:27:43;;;;;;;5.60;4.30;;;;;;;3.44;100.00;99506.17;108795;1254;60000;-72
2023/04/05 02:30:12;;;;;;;5.00;4.40;;;;;;;3.43;100.00;99505.14;108626;1254;71820;-72
2023/04/05 02:32:45;;;;;;;5.20;4.30;;;;;;;3.41;100.00;99502.00;108919;1254;70325;-74
2023/04/05 02:35:17;;;;;;;5.20;4.50;;;;;;;3.45;100.00;99503.61;108874;1254;72779;-73
2023/04/05 02:37:47;;;;;;;4.40;4.00;;;;;;;3.48;100.00;99508.61;108779;1254;60310;-72
2023/04/05 02:40:15;;;;;;;5.00;4.50;;;;;;;3.45;100.00;99506.95;108574;1254;60300;-70
2023/04/05 02:42:44;;;;;;;6.00;4.20;;;;;;;3.47;100.00;99503.64;108525;1257;73830;-70
2023/04/05 02:45:13;;;;;;;5.40;4.70;;;;;;;3.53;100.00;99500.98;108361;1257;70206;-72
2023/04/05 02:47:42;;;;;;;5.30;4.80;;;;;;;3.53;100.00;99504.69;106309;1259;73407;-73
2023/04/05 02:50:11;;;;;;;5.10;4.60;;;;;;;3.49;100.00;99509.74;105905;1258;61950;-75
2023/04/05 02:52:47;;;;;;;4.70;4.20;;;;;;;3.50;100.00;99511.96;105631;1260;60534;-73
2023/04/05 02:55:15;;;;;;;4.80;4.20;;;;;;;3.49;100.00;99504.70;105769;1260;74652;-73
2023/04/05 02:57:44;;;;;;;4.90;4.30;;;;;;;3.42;100.00;99500.88;105898;1255;71957;-72
2023/04/05 03:00:30;;;;;;;4.50;4.00;;;;;;;3.45;100.00;99503.48;105822;1255;72344;-74
2023/04/05 03:03:00;;;;;;;6.80;5.70;;;;;;;3.48;100.00;99504.77;105814;1257;61112;-73
2023/04/05 03:05:29;;;;;;;6.50;5.80;;;;;;;3.48;100.00;99505.11;105741;1254;60558;-72
2023/04/05 03:08:01;;;;;;;5.50;4.80;;;;;;;3.54;100.00;99508.30;105629;1254;74103;-73
2023/04/05 03:10:34;;;;;;;5.70;5.10;;;;;;;3.60;100.00;99507.81;105700;1254;70112;-71
2023/04/05 03:13:13;;;;;;;8.40;6.70;;;;;;;3.59;100.00;99498.23;105893;1257;72898;-73
2023/04/05 03:15:43;;;;;;;5.80;4.70;;;;;;;3.55;100.00;99497.20;105730;1254;61864;-74
2023/04/05 03:18:13;;;;;;;3.90;3.50;;;;;;;3.52;100.00;99498.81;105917;1254;61499;-73
2023/04/05 03:20:49;;;;;;;4.20;3.80;;;;;;;3.48;100.00;99503.35;105850;1257;73706;-73
2023/04/05 03:23:20;;;;;;;4.10;3.70;;;;;;;3.50;100.00;99509.34;105611;1254;70108;-70
2023/04/05 03:25:55;;;;;;;5.30;4.40;;;;;;;3.53;100.00;99506.98;105833;1258;72847;-74
2023/04/05 03:28:24;;;;;;;;;;;;;;;3.56;100.00;99512.66;105972;1254;61095;-73
2023/04/05 03:30:53;;;;;;;3.90;3.50;;;;;;;3.56;100.00;99515.70;105921;1257;60996;-72
2023/04/05 03:33:22;;;;;;;7.60;5.90;;;;;;;3.60;100.00;99512.38;105900;1254;75372;-71
2023/04/05 03:35:52;;;;;;;6.10;4.20;;;;;;;3.65;100.00;99506.69;105782;1254;71421;-73
2023/04/05 03:38:22;;;;;;;4.70;4.30;;;;;;;3.66;100.00;99500.13;105848;1254;73796;-72
2023/04/05 03:41:05;;;;;;;3.70;3.30;;;;;;;3.66;100.00;99493.45;105898;1254;61535;-72
2023/04/05 03:43:35;;;;;;;3.20;2.70;;;;;;;3.59;100.00;99496.45;105843;1259;60537;-73
2023/04/05 03:46:03;;;;;;;3.00;2.70;;;;;;;3.54;100.00;99501.43;105548;1254;72311;-72
2023/04/05 03:48:33;;;;;;;4.00;3.60;;;;;;;3.54;100.00;99498.69;105769;1260;71579;-74
2023/04/05 03:51:02;;;;;;;3.40;3.00;;;;;;;3.52;100.00;99495.15;105898;1254;72940;-72
2023/04/05 03:53:31;;;;;;;3.30;2.90;;;;;;;3.49;100.00;99497.69;105776;1260;62283;-73
2023/04/05 03:56:00;;;;;;;3.70;2.60;;;;;;;3.50;100.00;99503.39;105825;1254;61257;-74
2023/04/05 03:58:40;;;;;;;3.00;2.70;;;;;;;3.49;100.00;99507.45;105651;1261;75025;-76
2023/04/05 04:01:09;;;;;;;3.30;2.70;;;;;;;3.49;100.00;99505.23;105700;1254;71017;-74
2023/04/05 04:03:39;;;;;;;3.00;2.70;;;;;;;3.53;100.00;99500.70;105794;1256;73893;-74
2023/04/05 04:06:07;;;;;;;3.20;2.90;;;;;;;3.54;100.00;99501.43;105766;1254;60844;-76
2023/04/05 04:08:38;;;;;;;3.60;2.50;;;;;;;3.49;100.00;99500.98;105811;1259;60422;-75
2023/04/05 04:11:07;;;;;;;3.60;3.30;;;;;;;3.47;100.00;99501.90;105846;1256;72564;-75
2023/04/05 04:13:39;;;;;;;4.80;3.80;;;;;;;3.50;100.00;99505.52;106017;1254;70298;-74
2023/04/05 04:16:19;;;;;;;3.80;3.20;;;;;;;3.53;100.00;99498.42;105978;1259;71799;-74
2023/04/05 04:19:20;;;;;;;3.30;2.70;;;;;;;3.47;100.00;99492.92;105837;1253;62031;-74
2023/04/05 04:22:09;;;;;;;2.50;2.30;;;;;;;3.48;100.00;99488.99;106316;1254;60866;-74
2023/04/05 04:25:17;;;;;;;2.60;2.40;;;;;;;3.49;100.00;99486.80;105784;1258;74379;-72
2023/04/05 04:27:59;;;;;;;3.90;2.00;;;;;;;3.46;100.00;99482.86;105840;1254;70047;-75
2023/04/05 04:30:46;;;;;;;2.70;2.20;;;;;;;3.49;100.00;99482.95;105788;1254;72758;-74
2023/04/05 04:33:34;;;;;;;5.70;2.00;;;;;;;3.52;100.00;99485.33;105615;1254;61242;-73
2023/04/05 04:36:35;;;;;;;3.50;3.20;;;;;;;3.52;100.00;99488.00;105516;1254;61220;-73
2023/04/05 04:39:38;;;;;;;3.40;2.80;;;;;;;3.59;100.00;99490.33;105521;1254;73483;-75
2023/04/05 04:42:32;;;;;;;3.20;2.60;;;;;;;3.60;100.00;99485.53;105918;1254;69287;-72
2023/04/05 04:45:27;;;;;;;3.10;2.00;;;;;;;3.61;100.00;99481.45;105619;1253;71367;-77
2023/04/05 04:48:25;;;;;;;2.40;2.20;;;;;;;3.68;100.00;99482.25;105743;1257;61976;-75
2023/04/05 04:51:11;;;;;;;2.40;2.10;;;;;;;3.69;100.00;99482.84;105812;1254;60444;-75
2023/04/05 04:53:40;;;;;;;2.30;2.00;;;;;;;3.65;100.00;99487.23;105816;1254;74111;-75
2023/04/05 04:56:09;;;;;;;2.20;2.00;;;;;;;3.65;100.00;99490.71;105600;1254;70233;-78
2023/04/05 04:58:37;;;;;;;2.00;1.80;;;;;;;3.65;100.00;99493.16;105878;1256;73671;-76
2023/04/05 05:01:08;;;;;;;1.60;1.50;;;;;;;3.64;100.00;99498.14;105814;1253;60685;-75
2023/04/05 05:03:38;;;;;;;2.70;2.20;;;;;;;3.70;100.00;99499.75;105680;1261;257128;-78
2023/04/05 05:07:11;;;;;;;2.20;2.00;;;;;;;3.75;100.00;99493.05;102704;1290;600166;-78
2023/04/05 05:09:39;;;;;;;3.50;1.90;;;;;;;3.74;100.00;99493.63;105069;1265;59868;-76
2023/04/05 05:12:12;;;;;;;3.70;2.10;;;;;;;3.72;100.00;99498.52;105217;1264;61337;-76
2023/04/05 05:14:41;;;;;;;2.20;2.00;;;;;;;3.68;100.00;99495.59;105661;1260;73078;-79
2023/04/05 05:17:09;;;;;;;3.70;1.60;;;;;;;3.68;100.00;99494.52;105558;1260;71223;-78
2023/04/05 05:19:37;;;;;;;2.80;2.40;;;;;;;3.68;100.00;99498.04;105464;1264;73581;-78
2023/04/05 05:22:06;;;;;;;2.90;2.10;;;;;;;3.62;100.00;99498.15;105716;1257;60770;-77
2023/04/05 05:24:38;;;;;;;2.10;1.90;;;;;;;3.62;100.00;99494.67;105838;1253;60182;-74
2023/04/05 05:27:07;;;;;;;3.50;2.40;;;;;;;3.63;100.00;99488.82;105835;1253;73095;-80
2023/04/05 05:29:38;;;;;;;4.90;2.60;;;;;;;3.57;100.00;99486.90;105749;1253;69601;-79
2023/04/05 05:32:08;;;;;;;4.00;3.60;;;;;;;3.57;100.00;99484.10;105501;1253;73262;-78
2023/04/05 05:34:38;;;;;;;3.50;2.80;;;;;;;3.60;100.00;99477.19;105909;1253;61277;-77
2023/04/05 05:37:08;;;;;;;2.20;1.80;;;;;;;3.56;100.00;99475.36;106035;1253;59663;-75
2023/04/05 05:39:36;;;;;;;2.20;1.70;;;;;;;3.56;100.00;99470.48;105993;1253;74226;-78
2023/04/05 05:42:05;;;;;;;2.60;1.90;;;;;;;3.58;100.00;99466.66;106045;1253;69379;-78
2023/04/05 05:44:34;;;;;;;3.40;2.40;;;;;;;3.54;100.00;99470.64;105670;1256;73495;-76
2023/04/05 05:47:04;;;;;;;2.90;2.30;;;;;;;3.57;100.00;99472.52;105829;1254;63106;-75
2023/04/05 05:49:32;;;;;;;3.60;2.30;;;;;;;3.61;100.00;99472.84;105597;1253;59730;-77
2023/04/05 05:52:02;;;;;;;3.10;2.10;;;;;;;3.61;100.00;99477.05;105894;1257;73121;-79
2023/04/05 05:54:31;;;;;;;5.10;2.60;;;;;;;3.61;100.00;99474.95;105969;1257;68369;-78
2023/04/05 05:57:01;;;;;;;5.00;2.20;;;;;;;3.58;100.00;99471.39;105732;1253;73568;-78
2023/04/05 05:59:29;;;;;;;2.60;2.10;;;;;;;3.54;100.00;99468.02;105797;1254;60445;-77
2023/04/05 06:01:58;;;;;;;2.90;2.40;;;;;;;3.55;100.00;99468.48;105508;1260;61265;-74
2023/04/05 06:04:27;;;;;;;2.70;2.10;;;;;;;3.60;100.00;99467.52;105768;1253;73110;-73
2023/04/05 06:06:56;;;;;;;2.10;1.90;;;;;;;3.65;100.00;99473.36;105825;1256;69354;-76
2023/04/05 06:09:29;;;;;;;2.70;2.00;;;;;;;3.65;100.00;99469.58;105616;1256;70872;-75
2023/04/05 06:11:58;;;;;;;2.70;2.00;;;;;;;3.68;100.00;99467.85;105691;1256;61879;-74
2023/04/05 06:14:28;;;;;;;1.90;1.50;;;;;;;3.69;100.00;99472.71;105557;1260;60136;-75
2023/04/05 06:17:04;;;;;;;2.50;1.60;;;;;;;3.62;100.00;99470.64;105706;1259;74265;-72
2023/04/05 06:19:34;;;;;;;2.00;1.50;;;;;;;3.65;100.00;99472.20;105877;1256;69344;-75
2023/04/05 06:22:02;;;;;;;1.90;1.70;;;;;;;3.71;100.00;99476.74;105630;1256;72680;-75
2023/04/05 06:24:31;;;;;;;2.50;1.90;;;;;;;3.72;100.00;99476.30;105684;1259;61971;-73
2023/04/05 06:27:01;;;;;;;2.50;1.50;;;;;;;3.74;100.00;99480.65;105514;1257;60235;-74
2023/04/05 06:29:31;;;;;;;2.60;1.50;;;;;;;3.76;100.00;99485.98;105650;1261;72171;-76
2023/04/05 06:32:00;;;;;;;3.30;1.70;;;;;;;3.69;100.00;99486.84;105618;1256;70345;-77
2023/04/05 06:34:29;;;;;;;2.10;1.90;;;;;;;3.69;100.00;99486.17;106100;1256;74449;-79
2023/04/05 06:36:59;;;;;;;2.40;1.80;;;;;;;3.71;100.00;99489.19;106518;1260;61393;-79
2023/04/05 06:39:27;;;;;;;3.10;2.10;;;;;;;3.66;100.00;99483.96;107863;1252;60324;-79
2023/04/05 06:41:56;;;;;;;2.40;1.90;;;;;;;3.68;100.00;99483.63;106704;1253;74303;-77
2023/04/05 06:44:26;;;;;;;2.30;2.10;;;;;;;3.72;100.00;99488.19;105746;1253;71309;-77
2023/04/05 06:46:54;;;;;;;2.50;2.00;;;;;;;3.69;100.00;99487.38;105728;1253;73678;-80
2023/04/05 06:49:22;;;;;;;3.10;2.00;;;;;;;3.68;100.00;99486.65;105857;1253;62994;-79
2023/04/05 06:51:51;;;;;;;2.10;1.90;;;;;;;3.65;100.00;99487.75;106305;1256;59681;-79
2023/04/05 06:54:23;;;;;;;3.60;2.40;;;;;;;3.61;100.00;99489.66;105889;1260;72269;-77
2023/04/05 06:56:52;;;;;;;2.50;2.20;;;;;;;3.67;100.00;99488.33;105769;1253;70009;-78
2023/04/05 06:59:20;;;;;;;3.20;1.70;;;;;;;3.71;100.00;99488.11;105650;1254;71640;-76
2023/04/05 07:01:49;;;;;;;2.70;1.90;;;;;;;3.67;100.00;99490.58;105783;1253;61068;-77
2023/04/05 07:04:17;;;;;;;2.00;1.80;;;;;;;3.63;100.00;99483.23;105807;1252;61467;-78
2023/04/05 07:06:45;;;;;;;2.40;2.00;;;;;;;3.61;100.00;99488.48;105676;1255;73899;-74
2023/04/05 07:09:17;;;;;;;2.00;1.60;;;;;;;3.60;100.00;99489.82;105722;1253;71371;-75
2023/04/05 07:11:46;;;;;;;2.50;1.90;;;;;;;3.61;100.00;99489.64;105826;1253;71636;-76
2023/04/05 07:14:15;;;;;;;2.60;2.00;;;;;;;3.62;100.00;99484.86;105737;1258;61812;-75
2023/04/05 07:16:51;;;;;;;1.90;1.70;;;;;;;3.59;100.00;99483.75;105715;1253;60581;-75
2023/04/05 07:19:19;;;;;;;2.30;1.90;;;;;;;3.59;100.00;99480.40;105749;1253;74207;-72
2023/04/05 07:21:48;;;;;;;2.00;1.80;;;;;;;3.58;100.00;99468.21;105894;1255;71567;-74
2023/04/05 07:24:16;;;;;;;3.10;1.90;;;;;;;3.61;100.00;99470.91;105699;1253;73702;-77
2023/04/05 07:26:45;;;;;;;2.10;1.80;;;;;;;3.59;100.00;99463.88;105853;1253;61270;-76
2023/04/05 07:29:17;;;;;;;3.40;2.00;;;;;;;3.55;100.00;99461.83;105643;1257;61305;-76
2023/04/05 07:31:47;;;;;;;2.80;2.10;;;;;;;3.56;100.00;99457.73;105770;1253;73243;-78
2023/04/05 07:34:15;;;;;;;2.10;1.90;;;;;;;3.61;100.00;99456.20;105806;1253;71310;-78
2023/04/05 07:36:45;;;;;;;4.00;2.80;;;;;;;3.68;100.00;99456.65;105768;1253;72557;-77
2023/04/05 07:39:16;;;;;;;3.10;2.60;;;;;;;3.71;100.00;99454.86;105794;1253;62374;-77
2023/04/05 07:41:46;;;;;;;3.60;2.60;;;;;;;3.78;100.00;99457.91;105885;1260;61508;-76
2023/04/05 07:44:16;;;;;;;4.80;3.10;;;;;;;3.88;100.00;99460.61;105960;1258;73192;-77
2023/04/05 07:46:45;;;;;;;3.10;2.70;;;;;;;3.92;100.00;99460.57;106120;1260;71326;-77
2023/04/05 07:49:17;;;;;;;4.70;2.70;;;;;;;3.99;100.00;99455.75;106440;1253;72360;-76
2023/04/05 07:51:46;;;;;;;3.70;3.00;;;;;;;4.03;100.00;99456.10;106189;1258;59985;-76
2023/04/05 07:54:15;;;;;;;2.90;2.60;;;;;;;4.10;100.00;99453.73;106338;1253;61335;-76
2023/04/05 07:56:50;;;;;;;3.80;3.10;;;;;;;4.18;100.00;99452.77;106169;1253;72563;-77
2023/04/05 07:59:19;;;;;;;4.40;3.30;;;;;;;4.17;100.00;99455.95;105919;1252;69929;-77
2023/04/05 08:01:47;;;;;;;3.20;2.80;;;;;;;4.24;100.00;99452.40;106143;1258;72727;-77
2023/04/05 08:04:15;;;;;;;4.10;2.90;;;;;;;4.29;100.00;99454.15;106346;1253;59560;-77
2023/04/05 08:06:47;;;;;;;2.80;2.40;;;;;;;4.28;100.00;99457.64;106370;1252;61415;-77
2023/04/05 08:09:16;;;;;;;3.60;2.80;;;;;;;4.37;100.00;99452.84;105959;1253;74238;-76
2023/04/05 08:11:44;;;;;;;3.00;2.60;;;;;;;4.47;100.00;99449.10;105802;1253;71143;-75
2023/04/05 08:14:13;;;;;;;3.00;2.60;;;;;;;4.50;100.00;99450.11;106105;1253;73463;-75
2023/04/05 08:16:42;;;;;;;3.60;2.60;;;;;;;4.53;100.00;99457.86;106003;1254;59772;-75
2023/04/05 08:19:12;;;;;;;3.10;2.70;;;;;;;4.56;100.00;99457.46;105889;1258;59692;-76
2023/04/05 08:21:42;;;;;;;4.90;3.00;;;;;;;4.63;100.00;99462.61;105811;1253;73087;-77
2023/04/05 08:24:10;;;;;;;2.70;2.50;;;;;;;4.62;100.00;99466.17;105985;1253;69444;-78
2023/04/05 08:26:40;;;;;;;3.60;2.90;;;;;;;4.63;100.00;99472.94;105871;1253;71939;-76
2023/04/05 08:29:10;;;;;;;3.50;3.10;;;;;;;4.67;100.00;99468.10;106003;1253;61359;-76
2023/04/05 08:31:43;;;;;;;3.50;3.20;;;;;;;4.61;100.00;99467.20;105990;1253;60158;-78
2023/04/05 08:34:11;;;;;;;3.20;2.90;;;;;;;4.56;100.00;99468.02;105803;1253;73912;-77
2023/04/05 08:36:41;;;;;;;3.50;2.80;;;;;;;4.55;100.00;99464.56;105912;1253;69798;-78
2023/04/05 08:39:10;;;;;;;3.30;2.90;;;;;;;4.58;100.00;99468.19;106049;1253;72805;-77
2023/04/05 08:41:40;;;;;;;4.20;3.50;;;;;;;4.62;100.00;99459.55;106113;1253;62963;-76
2023/04/05 08:44:09;;;;;;;3.90;3.50;;;;;;;4.68;100.00;99462.66;106255;1253;60320;-74
2023/04/05 08:46:38;;;;;;;4.40;3.70;;;;;;;4.70;100.00;99462.31;106275;1253;73524;-77
2023/04/05 08:49:07;;;;;;;4.30;3.50;;;;;;;4.77;100.00;99461.01;107048;1253;71648;-78
2023/04/05 08:51:38;;;;;;;3.50;3.10;;;;;;;4.78;100.00;99463.39;107761;1253;73731;-76
2023/04/05 08:54:08;;;;;;;5.10;3.70;;;;;;;4.80;100.00;99458.80;107478;1252;59950;-77
2023/04/05 08:56:36;;;;;;;4.80;3.20;;;;;;;4.84;100.00;99458.95;107607;1252;60454;-77
2023/04/05 08:59:09;;;;;;;4.60;2.90;;;;;;;4.84;100.00;99462.68;106839;1256;71288;-77
2023/04/05 09:01:42;;;;;;;3.70;3.30;;;;;;;4.87;100.00;99459.91;106049;1253;71573;-77
2023/04/05 09:04:20;;;;;;;4.30;3.70;;;;;;;4.91;100.00;99455.20;105997;1253;70915;-78
2023/04/05 09:06:50;;;;;;;3.20;2.60;;;;;;;4.91;100.00;99462.24;105983;1257;59774;-79
2023/04/05 09:09:20;;;;;;;3.20;2.90;;;;;;;4.88;100.00;99456.69;106148;1257;61307;-78
2023/04/05 09:11:58;;;;;;;3.20;2.90;;;;;;;4.89;100.00;99453.81;106251;1253;73769;-78
2023/04/05 09:14:54;;;;;;;3.70;3.10;;;;;;;4.87;100.00;99451.13;107095;1261;70746;-79
2023/04/05 09:17:25;;;;;;;3.20;2.70;;;;;;;4.82;100.00;99453.89;105967;1253;73621;-79
2023/04/05 09:20:15;;;;;;;5.70;3.70;;;;;;;4.83;100.00;99451.52;106702;1253;61758;-78
2023/04/05 09:22:45;;;;;;;4.50;3.50;;;;;;;4.88;100.00;99450.57;106722;1257;61715;-77
2023/04/05 09:25:39;;;;;;;3.20;2.80;;;;;;;4.89;100.00;99443.02;106910;1253;74465;-76
2023/04/05 09:28:11;;;;;;;3.60;2.40;;;;;;;4.93;100.00;99440.23;106538;1258;70313;-77
2023/04/05 09:30:47;;;;;;;;;;;;;;;4.92;100.00;99445.23;106370;1253;73468;-77
2023/04/05 09:33:18;;;;;;;2.90;2.60;;;;;;;4.95;100.00;99445.89;106244;1258;60554;-77
2023/04/05 09:35:49;;;;;;;2.70;2.20;;;;;;;5.00;100.00;99448.76;106434;1254;61322;-76
2023/04/05 09:38:21;;;;;;;3.60;2.20;;;;;;;5.04;100.00;99446.48;106735;1252;74304;-78
2023/04/05 09:40:56;;;;;;;;;;;;;;;5.03;100.00;99436.91;106868;1253;70652;-75
2023/04/05 09:43:40;;;;;;;3.50;3.20;;;;;;;5.12;100.00;99447.02;106853;1254;71490;-78
2023/04/05 09:46:36;;;;;;;3.60;2.90;;;;;;;5.09;100.00;99448.85;106645;1253;61604;-76
2023/04/05 09:49:09;;;;;;;3.40;3.10;;;;;;;5.04;100.00;99447.71;106849;1255;60362;-77
2023/04/05 09:51:46;;;;;;;3.90;3.30;;;;;;;5.03;100.00;99445.55;106548;1253;74941;-79
2023/04/05 09:54:17;;;;;;;4.40;3.90;;;;;;;5.03;100.00;99448.88;106597;1258;72648;-76
2023/04/05 09:57:25;;;;;;;3.80;3.50;;;;;;;5.02;100.00;99446.55;106786;1253;72596;-77
2023/04/05 09:59:56;;;;;;;5.00;3.60;;;;;;;5.04;100.00;99443.14;107070;1256;61504;-75
2023/04/05 10:02:38;;;;;;;4.20;3.80;;;;;;;5.09;100.00;99437.56;107056;1253;60447;-77
2023/04/05 10:05:27;;;;;;;4.20;3.60;;;;;;;5.10;100.00;99437.69;107137;1253;72290;-79
2023/04/05 10:08:07;;;;;;;4.00;3.50;;;;;;;5.07;100.00;99430.58;106893;1253;71222;-79
2023/04/05 10:10:45;;;;;;;5.30;3.90;;;;;;;5.12;100.00;99433.83;106352;1253;72622;-78
2023/04/05 10:13:19;;;;;;;4.70;3.80;;;;;;;5.09;100.00;99433.71;106716;1253;63470;-78
2023/04/05 10:16:02;;;;;;;4.30;3.60;;;;;;;5.15;100.00;99432.46;106867;1252;61672;-79
2023/04/05 10:18:56;;;;;;;5.10;4.30;;;;;;;5.21;100.00;99429.34;107466;1257;75109;-78
2023/04/05 10:21:32;;;;;;;5.60;4.10;;;;;;;5.23;100.00;99429.45;107155;1253;71346;-79
2023/04/05 10:24:18;;;;;;;5.20;4.70;;;;;;;5.28;100.00;99428.28;106836;1253;72212;-79
2023/04/05 10:27:16;;;;;;;5.40;4.90;;;;;;;5.33;100.00;99429.42;106614;1253;61865;-79
2023/04/05 10:30:07;;;;;;;5.80;5.20;;;;;;;5.37;100.00;99434.83;106065;1253;61246;-76
2023/04/05 10:32:41;;;;;;;6.10;4.60;;;;;;;5.45;100.00;99433.20;105740;1253;73745;-76
2023/04/05 10:35:15;;;;;;;5.70;5.10;;;;;;;5.54;100.00;99429.94;105796;1252;70918;-75
2023/04/05 10:38:15;;;;;;;7.20;6.30;;;;;;;5.61;100.00;99434.77;105759;1253;74097;-75
2023/04/05 10:40:47;;;;;;;7.10;5.30;;;;;;;5.66;100.00;99430.77;105970;1254;61319;-75
2023/04/05 10:43:22;;;;;;;8.70;6.00;;;;;;;5.63;100.00;99432.27;105787;1253;60577;-74
2023/04/05 10:45:52;;;;;;;9.50;8.30;;;;;;;5.61;100.00;99432.30;105725;1254;74490;-73
2023/04/05 10:48:49;;;;;;;8.80;7.80;;;;;;;5.59;100.00;99432.14;107087;1253;70595;-74
2023/04/05 10:51:19;;;;;;;7.40;6.60;;;;;;;5.58;100.00;99433.42;107549;1255;73817;-74
2023/04/05 10:53:48;;;;;;;6.90;5.80;;;;;;;5.61;100.00;99431.63;107802;1253;62843;-74
2023/04/05 10:56:19;;;;;;;6.20;5.50;;;;;;;5.62;100.00;99429.77;107688;1253;60487;-74
2023/04/05 10:58:48;;;;;;;7.00;4.80;;;;;;;5.69;100.00;99433.30;108260;1256;73050;-76
2023/04/05 11:01:17;;;;;;;6.90;5.30;;;;;;;5.72;100.00;99438.14;107992;1252;70265;-75
2023/04/05 11:03:49;;;;;;;7.10;5.40;;;;;;;5.76;100.00;99440.51;108011;1252;72633;-75
2023/04/05 11:06:32;;;;;;;8.20;6.30;;;;;;;5.76;100.00;99440.67;107667;1253;61580;-75
2023/04/05 11:09:19;;;;;;;7.40;6.40;;;;;;;5.79;100.00;99437.94;107716;1253;61365;-74
2023/04/05 11:11:50;;;;;;;7.10;6.40;;;;;;;5.85;100.00;99440.90;107823;1253;74724;-76
2023/04/05 11:14:34;;;;;;;8.40;7.40;;;;;;;5.87;100.00;99444.71;108101;1252;69261;-76
2023/04/05 11:17:27;;;;;;;7.20;6.50;;;;;;;5.91;100.00;99434.94;108196;1253;72330;-76
2023/04/05 11:20:04;;;;;;;7.80;6.10;;;;;;;5.95;100.00;99436.82;107848;1253;59579;-76
2023/04/05 11:22:33;;;;;;;7.30;6.30;;;;;;;5.96;100.00;99436.60;107872;1253;61323;-76
2023/04/05 11:25:04;;;;;;;8.60;6.00;;;;;;;6.01;100.00;99439.63;107983;1253;73220;-76
2023/04/05 11:27:39;;;;;;;6.40;5.70;;;;;;;6.02;100.00;99441.06;108082;1253;71299;-77
2023/04/05 11:30:12;;;;;;;7.00;5.70;;;;;;;6.00;100.00;99439.33;108717;1253;75298;-76
2023/04/05 11:32:44;;;;;;;7.70;5.90;;;;;;;6.07;100.00;99436.08;108526;1252;60360;-77
2023/04/05 11:35:14;;;;;;;7.30;6.50;;;;;;;6.12;100.00;99437.52;108656;1253;60505;-75
2023/04/05 11:38:01;;;;;;;7.90;5.90;;;;;;;6.13;100.00;99434.08;108767;1253;75201;-77
2023/04/05 11:40:32;;;;;;;7.30;6.20;;;;;;;6.19;100.00;99434.77;108675;1253;68739;-76
2023/04/05 11:43:02;;;;;;;6.30;5.60;;;;;;;6.26;100.00;99436.52;108504;1253;73108;-75
2023/04/05 11:45:31;;;;;;;7.00;6.30;;;;;;;6.33;100.00;99437.66;108553;1253;60381;-76
2023/04/05 11:48:08;;;;;;;9.40;6.60;;;;;;;6.34;100.00;99436.69;109250;1253;60199;-75
2023/04/05 11:50:38;;;;;;;7.30;6.40;;;;;;;6.37;100.00;99434.44;109404;1253;73672;-76
2023/04/05 11:53:08;;;;;;;7.40;6.50;;;;;;;6.41;100.00;99437.75;107728;1262;70008;-76
2023/04/05 11:55:39;;;;;;;6.20;5.60;;;;;;;6.45;100.00;99434.55;107877;1253;72603;-76
2023/04/05 11:58:12;;;;;;;6.40;5.50;;;;;;;6.47;100.00;99433.81;107788;1253;60435;-75